Time;durP1;ratioP1;P1;durP2;ratioP2;P2;SDS_P1;SDS_P2;PMS_P1;PMS_P2;Temp;Humidity;BMP_temperature;BMP_pressure;BME280_temperature;BME280_humidity;BME280_pressure;Samples;Min_cycle;Max_cycle;Signal;HPM_P1;HPM_P2
2023/08/27 00:01:22;;;;;;;8.67;4.00;;;19.70;93.80;;;;;;5035507;28;20942;-49
2023/08/27 00:03:49;;;;;;;6.50;4.50;;;19.70;93.40;;;;;;5035176;28;20884;-50
2023/08/27 00:06:16;;;;;;;4.33;3.60;;;19.70;93.70;;;;;;5035316;28;20956;-49
2023/08/27 00:08:43;;;;;;;5.23;3.80;;;19.70;93.30;;;;;;5034908;28;20440;-50
2023/08/27 00:11:10;;;;;;;9.87;4.60;;;19.80;93.60;;;;;;5033816;28;20455;-50
2023/08/27 00:13:37;;;;;;;6.50;4.03;;;19.70;93.60;;;;;;5035145;28;20566;-50
2023/08/27 00:16:05;;;;;;;9.77;4.87;;;19.70;93.90;;;;;;5034970;28;20525;-49
2023/08/27 00:18:32;;;;;;;5.50;4.93;;;19.70;93.80;;;;;;5034744;28;20439;-48
2023/08/27 00:20:59;;;;;;;7.37;4.87;;;19.60;93.80;;;;;;5035164;28;20441;-50
2023/08/27 00:23:26;;;;;;;8.80;4.50;;;19.50;94.00;;;;;;5035015;28;20456;-50
2023/08/27 00:25:52;;;;;;;9.20;4.97;;;19.50;94.00;;;;;;5034903;28;20432;-49
2023/08/27 00:28:20;;;;;;;4.93;3.90;;;19.50;94.10;;;;;;5034593;28;20440;-49
2023/08/27 00:30:47;;;;;;;4.73;3.70;;;19.40;94.20;;;;;;5033410;28;20979;-47
2023/08/27 00:33:13;;;;;;;6.60;4.30;;;19.40;94.30;;;;;;5034631;28;20457;-49
2023/08/27 00:35:42;;;;;;;8.83;4.80;;;19.40;94.60;;;;;;5033568;28;20823;-48
2023/08/27 00:38:08;;;;;;;6.00;4.20;;;19.40;94.60;;;;;;5033057;28;20462;-49
2023/08/27 00:40:35;;;;;;;6.27;4.53;;;19.40;94.80;;;;;;5033442;28;20475;-50
2023/08/27 00:43:03;;;;;;;7.00;5.30;;;19.30;94.70;;;;;;5033272;28;20855;-50
2023/08/27 00:45:32;;;;;;;7.50;5.40;;;19.30;95.00;;;;;;5033396;28;20448;-49
2023/08/27 00:47:59;;;;;;;5.90;4.50;;;19.30;95.00;;;;;;5034408;28;20877;-48
2023/08/27 00:50:26;;;;;;;7.07;4.70;;;19.30;95.10;;;;;;5034983;28;20787;-48
2023/08/27 00:52:53;;;;;;;7.60;4.50;;;19.30;95.20;;;;;;5033716;28;20476;-49
2023/08/27 00:55:20;;;;;;;6.70;4.50;;;19.20;95.40;;;;;;5033542;28;20483;-49
2023/08/27 00:57:48;;;;;;;7.37;4.93;;;19.20;95.80;;;;;;5032930;28;20483;-50
2023/08/27 01:00:17;;;;;;;7.13;5.23;;;19.20;95.30;;;;;;5034419;28;20433;-49
2023/08/27 01:02:46;;;;;;;6.67;5.23;;;19.20;95.50;;;;;;5032771;28;20474;-48
2023/08/27 01:05:13;;;;;;;7.83;4.93;;;19.20;95.70;;;;;;5033171;28;20452;-47
2023/08/27 01:07:47;;;;;;;6.00;4.80;;;19.20;95.60;;;;;;5032914;28;20452;-49
2023/08/27 01:10:22;;;;;;;6.07;4.97;;;19.20;96.00;;;;;;5033754;28;20461;-49
2023/08/27 01:13:00;;;;;;;9.10;5.10;;;19.00;95.90;;;;;;5035198;28;20975;-47
2023/08/27 01:15:28;;;;;;;7.73;4.63;;;19.00;96.20;;;;;;5035202;28;20446;-49
2023/08/27 01:17:58;;;;;;;5.30;4.40;;;19.00;96.20;;;;;;5032358;28;20479;-48
2023/08/27 01:20:26;;;;;;;7.80;4.63;;;19.00;96.30;;;;;;5033270;28;20450;-49
2023/08/27 01:22:54;;;;;;;7.30;5.20;;;19.00;96.20;;;;;;5032920;28;20468;-49
2023/08/27 01:25:25;;;;;;;5.60;4.90;;;19.00;96.50;;;;;;5034619;28;20443;-46
2023/08/27 01:27:57;;;;;;;5.87;4.70;;;19.00;96.30;;;;;;5034533;28;20455;-48
2023/08/27 01:30:30;;;;;;;5.70;4.37;;;19.00;96.40;;;;;;5033568;28;20447;-47
2023/08/27 01:33:01;;;;;;;5.47;4.90;;;18.90;96.70;;;;;;5034220;28;20483;-48
2023/08/27 01:35:30;;;;;;;7.97;4.87;;;18.90;96.70;;;;;;5033298;28;20502;-47
2023/08/27 01:37:58;;;;;;;8.63;5.00;;;18.80;97.10;;;;;;5032910;28;20554;-49
2023/08/27 01:40:26;;;;;;;5.23;4.43;;;18.70;96.90;;;;;;5033879;28;20457;-48
2023/08/27 01:42:53;;;;;;;6.40;4.90;;;18.70;97.10;;;;;;5032265;28;20480;-49
2023/08/27 01:45:21;;;;;;;6.60;4.80;;;18.70;97.00;;;;;;5032513;28;20836;-49
2023/08/27 01:47:48;;;;;;;6.30;4.77;;;18.80;97.50;;;;;;5031885;28;20522;-50
2023/08/27 01:50:15;;;;;;;6.30;4.07;;;18.80;97.60;;;;;;5033617;28;20432;-49
2023/08/27 01:52:41;;;;;;;5.10;4.37;;;18.70;97.50;;;;;;5033253;28;20478;-50
2023/08/27 01:55:10;;;;;;;5.93;4.17;;;18.80;97.80;;;;;;5032281;28;20458;-49
2023/08/27 01:57:37;;;;;;;5.27;4.37;;;18.70;97.80;;;;;;5033170;28;20472;-49
2023/08/27 02:00:08;;;;;;;10.57;5.10;;;18.70;97.70;;;;;;5033373;28;20467;-50
2023/08/27 02:02:41;;;;;;;6.37;4.83;;;18.70;98.00;;;;;;5032449;28;20972;-49
2023/08/27 02:05:08;;;;;;;6.80;4.70;;;18.60;97.80;;;;;;5033202;28;20460;-50
2023/08/27 02:07:36;;;;;;;7.20;4.70;;;18.70;98.30;;;;;;5031336;28;20461;-49
2023/08/27 02:10:03;;;;;;;5.37;4.50;;;18.60;98.30;;;;;;5033320;28;20439;-50
2023/08/27 02:12:31;;;;;;;7.03;5.13;;;18.50;98.30;;;;;;5031840;28;21055;-49
2023/08/27 02:14:58;;;;;;;6.03;5.20;;;18.50;98.30;;;;;;5031854;28;20822;-49
2023/08/27 02:17:25;;;;;;;10.53;5.90;;;18.50;98.40;;;;;;5031339;28;20455;-50
2023/08/27 02:19:51;;;;;;;5.70;4.87;;;18.50;98.50;;;;;;5031876;28;20443;-48
2023/08/27 02:22:21;;;;;;;9.60;5.70;;;18.40;98.70;;;;;;5031542;28;20457;-48
2023/08/27 02:24:48;;;;;;;6.93;4.13;;;18.40;98.70;;;;;;5032292;28;20461;-48
2023/08/27 02:27:14;;;;;;;5.50;4.73;;;18.40;99.10;;;;;;5032192;28;20955;-49
2023/08/27 02:29:42;;;;;;;6.37;5.03;;;18.40;98.90;;;;;;5033871;28;20435;-47
2023/08/27 02:32:09;;;;;;;7.27;5.43;;;18.50;99.20;;;;;;5032236;28;20479;-49
2023/08/27 02:34:35;;;;;;;7.30;5.00;;;18.50;99.00;;;;;;5033556;28;20490;-47
2023/08/27 02:37:02;;;;;;;9.70;5.70;;;18.40;99.10;;;;;;5032913;28;20434;-47
2023/08/27 02:39:29;;;;;;;6.80;5.03;;;18.40;99.50;;;;;;5032198;28;20442;-48
2023/08/27 02:41:55;;;;;;;10.17;5.20;;;18.80;99.80;;;;;;5031272;28;20461;-49
2023/08/27 02:44:22;;;;;;;7.10;4.80;;;18.50;99.50;;;;;;5032385;28;20440;-49
2023/08/27 02:46:50;;;;;;;7.00;5.37;;;18.40;99.50;;;;;;5030880;28;20458;-50
2023/08/27 02:49:16;;;;;;;8.20;5.87;;;18.40;99.60;;;;;;5031172;28;20459;-50
2023/08/27 02:51:43;;;;;;;6.20;4.73;;;18.40;99.90;;;;;;5032255;28;20431;-48
2023/08/27 02:54:10;;;;;;;7.40;5.13;;;18.40;99.80;;;;;;5030991;28;20483;-48
2023/08/27 02:56:36;;;;;;;6.33;4.87;;;18.40;99.90;;;;;;5031153;28;20953;-49
2023/08/27 02:59:04;;;;;;;12.30;5.00;;;18.30;99.90;;;;;;5032282;28;20444;-49
2023/08/27 03:01:31;;;;;;;8.77;5.30;;;18.30;99.90;;;;;;5032199;28;20428;-48
2023/08/27 03:03:59;;;;;;;5.90;5.30;;;18.30;99.90;;;;;;5030703;28;20467;-49
2023/08/27 03:06:26;;;;;;;8.17;6.67;;;18.40;99.90;;;;;;5030915;28;20537;-48
2023/08/27 03:08:52;;;;;;;7.10;5.37;;;18.30;99.90;;;;;;5031694;28;20440;-50
2023/08/27 03:11:19;;;;;;;7.17;5.57;;;18.20;99.90;;;;;;5030841;28;20454;-48
2023/08/27 03:13:46;;;;;;;9.00;4.70;;;18.30;99.90;;;;;;5029687;28;20483;-48
2023/08/27 03:16:12;;;;;;;6.10;5.50;;;18.20;99.90;;;;;;5030627;28;20833;-49
2023/08/27 03:18:39;;;;;;;6.77;5.53;;;18.20;99.90;;;;;;5030354;28;20969;-49
2023/08/27 03:21:07;;;;;;;6.60;5.33;;;18.20;99.90;;;;;;5030824;28;20457;-49
2023/08/27 03:23:35;;;;;;;10.73;6.97;;;18.20;99.90;;;;;;5031923;28;20829;-49
2023/08/27 03:26:02;;;;;;;6.03;5.43;;;18.20;99.90;;;;;;5030647;28;20464;-48
2023/08/27 03:28:28;;;;;;;7.17;5.70;;;18.20;99.90;;;;;;5030255;28;20491;-48
2023/08/27 03:30:55;;;;;;;6.00;5.33;;;18.30;99.90;;;;;;5030881;28;20451;-48
2023/08/27 03:33:22;;;;;;;5.97;5.30;;;18.20;99.90;;;;;;5032461;28;20478;-47
2023/08/27 03:35:52;;;;;;;8.97;5.67;;;18.10;99.90;;;;;;5032857;28;20431;-48
2023/08/27 03:38:20;;;;;;;7.20;5.70;;;18.20;99.90;;;;;;5032059;28;20810;-49
2023/08/27 03:40:49;;;;;;;7.70;5.30;;;18.10;99.90;;;;;;5032357;28;20443;-48
2023/08/27 03:43:16;;;;;;;5.90;5.30;;;18.10;99.90;;;;;;5055936;22;20491;-48
2023/08/27 03:45:43;;;;;;;6.87;5.23;;;18.00;99.90;;;;;;5031005;28;20795;-48
2023/08/27 03:48:10;;;;;;;6.63;5.27;;;18.00;99.90;;;;;;5030964;28;20439;-48
2023/08/27 03:50:37;;;;;;;8.73;5.43;;;18.00;99.90;;;;;;5029765;28;20438;-48
2023/08/27 03:53:04;;;;;;;6.80;5.20;;;18.00;99.90;;;;;;5029538;28;20561;-48
2023/08/27 03:55:38;;;;;;;7.27;5.47;;;17.90;99.90;;;;;;5029787;28;20449;-48
2023/08/27 03:58:05;;;;;;;7.33;5.63;;;17.80;99.90;;;;;;5029329;28;20558;-48
2023/08/27 04:00:33;;;;;;;8.90;6.27;;;17.90;99.90;;;;;;5030950;28;20901;-48
2023/08/27 04:03:00;;;;;;;10.17;6.57;;;17.80;99.90;;;;;;5031353;28;20824;-48
2023/08/27 04:05:26;;;;;;;6.50;5.13;;;17.90;99.90;;;;;;5029711;28;20502;-48
2023/08/27 04:07:53;;;;;;;9.03;6.23;;;17.90;99.90;;;;;;5048030;28;20450;-49
2023/08/27 04:10:20;;;;;;;8.63;6.10;;;18.00;99.90;;;;;;5049610;28;20449;-48
2023/08/27 04:12:48;;;;;;;12.50;6.90;;;18.00;99.90;;;;;;5049260;28;20449;-48
2023/08/27 04:15:15;;;;;;;7.30;6.17;;;17.80;99.90;;;;;;5049544;28;20477;-49
2023/08/27 04:17:42;;;;;;;6.40;5.63;;;18.10;99.90;;;;;;5049121;28;20761;-49
2023/08/27 04:20:10;;;;;;;11.10;5.93;;;18.40;99.90;;;;;;5049572;28;20557;-48
2023/08/27 04:22:38;;;;;;;7.30;5.73;;;18.10;99.90;;;;;;5049551;28;20545;-48
2023/08/27 04:25:06;;;;;;;7.07;6.37;;;18.10;99.90;;;;;;5052649;28;20949;-49
2023/08/27 04:27:33;;;;;;;7.77;6.10;;;16.40;99.90;;;;;;5052487;28;21015;-49
2023/08/27 04:30:01;;;;;;;8.80;6.83;;;18.10;99.90;;;;;;5054499;28;20438;-48
2023/08/27 04:32:28;;;;;;;8.87;6.50;;;18.10;99.90;;;;;;5052912;28;20446;-49
2023/08/27 04:34:55;;;;;;;9.70;5.83;;;18.10;99.90;;;;;;5052618;28;20485;-49
2023/08/27 04:37:21;;;;;;;6.43;5.83;;;18.10;99.90;;;;;;5054090;28;20429;-49
2023/08/27 04:39:48;;;;;;;7.27;5.80;;;18.10;99.90;;;;;;5054040;28;20532;-48
2023/08/27 04:42:15;;;;;;;8.53;7.70;;;18.10;99.90;;;;;;5052775;28;20442;-49
2023/08/27 04:44:41;;;;;;;7.77;6.90;;;18.00;99.90;;;;;;5052754;28;20477;-48
2023/08/27 04:47:09;;;;;;;6.93;6.13;;;18.00;99.90;;;;;;5053590;28;20433;-49
2023/08/27 04:49:36;;;;;;;7.43;6.60;;;18.00;99.90;;;;;;5052433;28;20461;-48
2023/08/27 04:52:05;;;;;;;7.80;7.00;;;18.00;99.90;;;;;;5052537;28;20445;-48
2023/08/27 04:54:31;;;;;;;8.23;6.40;;;18.00;99.90;;;;;;5052273;28;20854;-48
2023/08/27 04:56:59;;;;;;;6.97;6.27;;;18.00;99.90;;;;;;5052256;28;20453;-49
2023/08/27 04:59:25;;;;;;;9.33;6.20;;;18.00;99.90;;;;;;5053890;28;20456;-49
2023/08/27 05:01:54;;;;;;;7.00;5.90;;;17.80;99.90;;;;;;5052862;28;20421;-49
2023/08/27 05:04:23;;;;;;;7.50;6.37;;;18.20;99.90;;;;;;5052468;28;20477;-48
2023/08/27 05:06:50;;;;;;;5.97;4.97;;;18.20;99.90;;;;;;5041730;28;20911;-48
2023/08/27 05:09:17;;;;;;;8.00;5.60;;;18.30;99.90;;;;;;5032421;28;20506;-48
2023/08/27 05:11:43;;;;;;;6.53;5.83;;;18.30;99.90;;;;;;5032512;28;20549;-48
2023/08/27 05:14:10;;;;;;;9.20;6.20;;;18.30;99.90;;;;;;5032100;28;20474;-48
2023/08/27 05:16:36;;;;;;;6.87;6.20;;;18.20;99.90;;;;;;5032326;28;21054;-49
2023/08/27 05:19:03;;;;;;;7.60;5.83;;;18.40;99.90;;;;;;5032426;28;20463;-48
2023/08/27 05:21:31;;;;;;;8.37;6.47;;;18.40;99.90;;;;;;5032447;28;20446;-49
2023/08/27 05:23:58;;;;;;;8.00;6.23;;;18.30;99.90;;;;;;5032313;28;20472;-49
2023/08/27 05:26:26;;;;;;;11.33;6.53;;;18.30;99.90;;;;;;5032099;28;20505;-49
2023/08/27 05:28:52;;;;;;;8.10;6.40;;;18.30;99.90;;;;;;5031771;28;20827;-49
2023/08/27 05:31:19;;;;;;;6.63;5.93;;;18.30;99.90;;;;;;5031943;28;20477;-48
2023/08/27 05:33:46;;;;;;;6.90;6.20;;;18.50;99.90;;;;;;5031868;28;20489;-49
2023/08/27 05:36:12;;;;;;;7.77;6.70;;;18.30;99.90;;;;;;5030984;28;20424;-48
2023/08/27 05:38:40;;;;;;;9.07;6.20;;;18.60;99.90;;;;;;5032563;28;20443;-48
2023/08/27 05:41:07;;;;;;;8.10;6.10;;;18.60;99.90;;;;;;5031625;28;20443;-48
2023/08/27 05:43:34;;;;;;;8.17;5.90;;;;;;;;;;5031781;28;20503;-48
2023/08/27 05:46:00;;;;;;;7.63;6.10;;;18.80;99.90;;;;;;5034343;28;20928;-49
2023/08/27 05:48:27;;;;;;;8.50;5.90;;;18.80;99.90;;;;;;5031428;28;20525;-48
2023/08/27 05:50:54;;;;;;;8.40;5.87;;;18.90;99.90;;;;;;5031946;28;20550;-48
2023/08/27 05:53:20;;;;;;;6.60;4.80;;;19.00;99.90;;;;;;5031494;28;20567;-49
2023/08/27 05:55:49;;;;;;;8.27;6.33;;;19.00;99.90;;;;;;5031637;28;20475;-49
2023/08/27 05:58:16;;;;;;;10.00;5.53;;;19.00;99.90;;;;;;5031328;28;20451;-49
2023/08/27 06:00:43;;;;;;;6.00;5.40;;;19.10;99.90;;;;;;5032973;28;20917;-49
2023/08/27 06:03:10;;;;;;;6.40;5.00;;;19.10;99.90;;;;;;5031194;28;20467;-49
2023/08/27 06:05:37;;;;;;;5.93;5.33;;;19.10;99.90;;;;;;5031279;28;20457;-48
2023/08/27 06:08:04;;;;;;;6.87;5.50;;;19.20;99.90;;;;;;5050530;28;20446;-48
2023/08/27 06:10:31;;;;;;;6.00;4.93;;;19.20;99.90;;;;;;5051063;28;20955;-48
2023/08/27 06:13:00;;;;;;;9.17;5.93;;;19.30;99.90;;;;;;5052362;28;20894;-48
2023/08/27 06:15:28;;;;;;;7.03;5.70;;;19.40;99.90;;;;;;5052181;28;20462;-50
2023/08/27 06:17:54;;;;;;;7.53;6.37;;;19.40;99.90;;;;;;5050478;28;20495;-48
2023/08/27 06:20:22;;;;;;;6.83;6.13;;;19.50;99.90;;;;;;5050568;28;20451;-48
2023/08/27 06:22:48;;;;;;;6.30;5.37;;;19.50;99.90;;;;;;5052077;28;20432;-48
2023/08/27 06:25:16;;;;;;;6.77;4.97;;;19.50;99.90;;;;;;5050751;28;20927;-48
2023/08/27 06:27:42;;;;;;;8.37;5.13;;;19.50;99.90;;;;;;5050069;28;20844;-48
2023/08/27 06:30:12;;;;;;;5.97;4.43;;;19.60;99.90;;;;;;5050499;28;20836;-49
2023/08/27 06:32:38;;;;;;;5.00;4.50;;;19.70;99.90;;;;;;5050429;28;20475;-49
2023/08/27 06:35:06;;;;;;;8.80;6.80;;;19.60;99.90;;;;;;5050470;28;20480;-49
2023/08/27 06:37:32;;;;;;;6.43;4.87;;;19.70;99.90;;;;;;5050028;28;20478;-49
2023/08/27 06:39:59;;;;;;;4.83;4.40;;;19.80;99.90;;;;;;5050405;28;20456;-49
2023/08/27 06:42:26;;;;;;;8.13;5.03;;;20.00;99.90;;;;;;5050333;28;20459;-49
2023/08/27 06:44:53;;;;;;;7.30;4.57;;;20.00;99.90;;;;;;5050144;28;20481;-48
2023/08/27 06:47:21;;;;;;;5.47;4.33;;;20.10;99.90;;;;;;5051205;28;20436;-49
2023/08/27 06:49:51;;;;;;;6.40;5.47;;;20.30;99.90;;;;;;5051928;28;20439;-49
2023/08/27 06:52:18;;;;;;;7.13;4.70;;;20.30;99.90;;;;;;5050656;28;20809;-49
2023/08/27 06:54:45;;;;;;;5.80;5.20;;;20.30;99.90;;;;;;5050039;28;20478;-49
2023/08/27 06:57:12;;;;;;;5.23;4.40;;;20.20;99.90;;;;;;5049476;28;20998;-48
2023/08/27 06:59:38;;;;;;;5.10;4.60;;;20.30;99.90;;;;;;5051502;28;20465;-48
2023/08/27 07:02:05;;;;;;;5.63;3.90;;;20.40;99.90;;;;;;5050056;28;20821;-48
2023/08/27 07:04:33;;;;;;;5.70;3.80;;;20.50;99.40;;;;;;5050011;28;20476;-48
2023/08/27 07:07:00;;;;;;;7.70;4.27;;;20.60;99.00;;;;;;5039315;28;20453;-48
2023/08/27 07:09:27;;;;;;;7.93;3.57;;;20.60;98.60;;;;;;5030048;28;20980;-48
2023/08/27 07:11:54;;;;;;;3.37;3.07;;;20.70;98.20;;;;;;5030003;28;20503;-48
2023/08/27 07:14:20;;;;;;;4.47;3.70;;;20.70;97.90;;;;;;5029779;28;21121;-48
2023/08/27 07:16:48;;;;;;;5.47;3.90;;;20.70;97.60;;;;;;5029571;28;20453;-49
2023/08/27 07:19:14;;;;;;;5.93;3.40;;;20.80;97.40;;;;;;5029989;28;20516;-49
2023/08/27 07:21:43;;;;;;;5.67;3.20;;;20.80;97.20;;;;;;5029962;28;20515;-48
2023/08/27 07:24:09;;;;;;;5.07;3.60;;;20.80;96.90;;;;;;5029796;28;20478;-49
2023/08/27 07:26:36;;;;;;;6.70;3.67;;;20.90;96.70;;;;;;5029721;28;20461;-49
2023/08/27 07:29:03;;;;;;;4.40;3.50;;;21.00;96.50;;;;;;5029932;28;20479;-48
2023/08/27 07:31:29;;;;;;;5.57;3.63;;;21.00;96.20;;;;;;5029688;28;20446;-49
2023/08/27 07:33:56;;;;;;;5.13;3.27;;;21.10;96.10;;;;;;5029598;28;20481;-49
2023/08/27 07:36:23;;;;;;;4.90;3.63;;;21.20;96.00;;;;;;5031194;28;20486;-49
2023/08/27 07:38:51;;;;;;;4.10;3.50;;;21.20;95.70;;;;;;5030841;28;20435;-48
2023/08/27 07:41:18;;;;;;;6.53;3.30;;;21.30;95.60;;;;;;5029003;28;20442;-48
2023/08/27 07:43:44;;;;;;;3.80;2.60;;;21.30;95.40;;;;;;5030602;28;20553;-49
2023/08/27 07:46:11;;;;;;;5.83;2.63;;;21.40;95.20;;;;;;5029053;28;20854;-49
2023/08/27 07:48:38;;;;;;;5.87;3.20;;;21.50;94.90;;;;;;5030854;28;20467;-49
2023/08/27 07:51:05;;;;;;;4.60;2.60;;;21.60;94.70;;;;;;5029584;28;20965;-49
2023/08/27 07:53:32;;;;;;;4.53;3.47;;;21.70;94.40;;;;;;5029577;28;20509;-49
2023/08/27 07:56:00;;;;;;;7.70;3.00;;;21.80;94.20;;;;;;5029666;28;20549;-49
2023/08/27 07:58:29;;;;;;;6.47;3.53;;;21.90;93.90;;;;;;5030668;28;20483;-50
2023/08/27 08:00:58;;;;;;;5.80;3.20;;;22.00;93.70;;;;;;5034074;28;20451;-49
2023/08/27 08:03:25;;;;;;;5.33;3.13;;;22.30;93.40;;;;;;5033450;28;20474;-50
2023/08/27 08:05:52;;;;;;;5.67;3.23;;;22.20;93.50;;;;;;5036904;28;20432;-49
2023/08/27 08:08:18;;;;;;;4.17;3.00;;;22.20;93.30;;;;;;5054085;28;20434;-49
2023/08/27 08:10:45;;;;;;;4.13;2.80;;;22.30;93.00;;;;;;5053276;28;20458;-49
2023/08/27 08:13:13;;;;;;;5.27;3.50;;;22.40;92.30;;;;;;5054726;28;20963;-50
2023/08/27 08:15:40;;;;;;;3.93;2.50;;;22.50;92.50;;;;;;5054190;28;20474;-49
2023/08/27 08:18:06;;;;;;;3.23;2.30;;;22.60;92.10;;;;;;5054185;28;20438;-50
2023/08/27 08:20:33;;;;;;;4.10;2.70;;;22.70;91.80;;;;;;5053924;28;20444;-49
2023/08/27 08:23:00;;;;;;;6.70;2.87;;;22.80;91.50;;;;;;5054452;28;20960;-49
2023/08/27 08:25:27;;;;;;;4.67;2.60;;;22.90;91.20;;;;;;5054637;28;20526;-50
2023/08/27 08:27:54;;;;;;;3.27;2.23;;;23.00;90.80;;;;;;5054341;28;20478;-49
2023/08/27 08:30:22;;;;;;;3.83;2.23;;;26.60;92.10;;;;;;5054556;28;20484;-49
2023/08/27 08:32:48;;;;;;;3.27;2.70;;;23.10;89.50;;;;;;5054316;28;20448;-50
2023/08/27 08:35:15;;;;;;;3.00;1.93;;;23.20;90.00;;;;;;5053721;28;20480;-49
2023/08/27 08:37:42;;;;;;;4.90;2.27;;;23.20;89.30;;;;;;5053525;28;20411;-49
2023/08/27 08:40:11;;;;;;;4.23;2.03;;;23.20;88.80;;;;;;5053945;28;20804;-48
2023/08/27 08:42:44;;;;;;;4.93;2.30;;;23.30;87.70;;;;;;5052603;28;20453;-49
2023/08/27 08:45:14;;;;;;;8.30;2.53;;;23.30;88.30;;;;;;5053930;28;20441;-49
2023/08/27 08:47:44;;;;;;;3.60;2.43;;;23.40;87.60;;;;;;5053300;28;20442;-49
2023/08/27 08:50:15;;;;;;;8.53;3.43;;;23.40;87.00;;;;;;5053936;28;20441;-49
2023/08/27 08:52:45;;;;;;;3.87;2.30;;;23.40;85.80;;;;;;5053636;28;20438;-49
2023/08/27 08:55:16;;;;;;;4.13;2.47;;;23.40;86.30;;;;;;5053302;28;20481;-49
2023/08/27 08:57:51;;;;;;;3.73;2.47;;;23.30;86.00;;;;;;5053336;28;20444;-49
2023/08/27 09:00:19;;;;;;;5.40;2.70;;;23.30;85.90;;;;;;5053893;28;20440;-49
2023/08/27 09:02:47;;;;;;;4.83;2.37;;;23.30;84.80;;;;;;5053244;28;20445;-49
2023/08/27 09:05:17;;;;;;;8.83;2.57;;;23.30;85.40;;;;;;5053568;28;20430;-49
2023/08/27 09:07:46;;;;;;;3.07;2.10;;;23.30;85.40;;;;;;5035711;28;20454;-47
2023/08/27 09:10:13;;;;;;;3.07;2.00;;;23.30;85.60;;;;;;5033899;28;20442;-48
2023/08/27 09:12:42;;;;;;;5.30;2.40;;;23.30;84.40;;;;;;5032463;28;20458;-48
2023/08/27 09:15:09;;;;;;;4.07;2.50;;;23.30;85.10;;;;;;5033292;28;20477;-48
2023/08/27 09:17:36;;;;;;;4.83;2.63;;;23.40;85.00;;;;;;5033401;28;20431;-49
2023/08/27 09:20:04;;;;;;;3.50;2.80;;;23.40;84.80;;;;;;5033578;28;20454;-49
2023/08/27 09:22:33;;;;;;;4.07;2.60;;;23.40;85.20;;;;;;5033288;28;20793;-49
2023/08/27 09:25:00;;;;;;;2.87;2.00;;;23.40;84.80;;;;;;5033921;28;21004;-47
2023/08/27 09:27:27;;;;;;;4.77;2.50;;;23.40;84.40;;;;;;5033160;28;20438;-49
2023/08/27 09:29:57;;;;;;;3.50;2.20;;;23.40;84.70;;;;;;5033359;28;20438;-48
2023/08/27 09:32:24;;;;;;;3.70;2.70;;;23.40;85.00;;;;;;5033671;28;20446;-49
2023/08/27 09:34:58;;;;;;;6.67;2.73;;;23.40;85.30;;;;;;5032861;28;20458;-48
2023/08/27 09:37:27;;;;;;;4.53;2.50;;;23.40;85.40;;;;;;5032642;28;20556;-48
2023/08/27 09:39:54;;;;;;;4.57;3.20;;;23.50;85.70;;;;;;5032925;28;20430;-49
2023/08/27 09:42:21;;;;;;;2.93;1.90;;;23.50;85.80;;;;;;5032971;28;20445;-50
2023/08/27 09:44:49;;;;;;;5.97;2.53;;;23.60;85.60;;;;;;5033057;28;20520;-49
2023/08/27 09:47:16;;;;;;;5.70;2.50;;;23.60;85.10;;;;;;5032104;28;20453;-50
2023/08/27 09:49:43;;;;;;;3.50;2.80;;;23.60;84.80;;;;;;5032840;28;20442;-49
2023/08/27 09:52:10;;;;;;;2.43;2.00;;;23.70;84.80;;;;;;5032618;28;20442;-49
2023/08/27 09:54:38;;;;;;;3.60;2.57;;;23.70;85.00;;;;;;5032784;28;20658;-49
2023/08/27 09:57:05;;;;;;;3.87;2.40;;;23.80;84.90;;;;;;5032014;28;20479;-49
2023/08/27 09:59:31;;;;;;;4.13;2.20;;;23.90;84.80;;;;;;5032165;28;20798;-49
2023/08/27 10:02:00;;;;;;;3.97;2.70;;;23.90;84.50;;;;;;5032656;28;20558;-49
2023/08/27 10:04:26;;;;;;;4.00;2.47;;;23.80;83.40;;;;;;5031933;28;20471;-49
2023/08/27 10:06:53;;;;;;;2.80;2.40;;;23.80;82.50;;;;;;5041309;28;20454;-50
2023/08/27 10:09:20;;;;;;;3.83;2.20;;;23.70;82.40;;;;;;5050511;28;20916;-48
2023/08/27 10:11:49;;;;;;;4.07;2.40;;;23.80;82.40;;;;;;5051779;28;20431;-48
2023/08/27 10:14:16;;;;;;;4.33;2.30;;;23.90;82.00;;;;;;5052117;28;20520;-50
2023/08/27 10:16:43;;;;;;;3.13;1.87;;;23.90;81.50;;;;;;5051490;28;20477;-49
2023/08/27 10:19:10;;;;;;;4.40;2.20;;;24.10;81.30;;;;;;5051863;28;20444;-49
2023/08/27 10:21:37;;;;;;;3.83;2.40;;;24.10;80.60;;;;;;5051641;28;20447;-50
2023/08/27 10:24:06;;;;;;;4.43;2.63;;;24.20;79.70;;;;;;5051559;28;20462;-49
2023/08/27 10:26:33;;;;;;;5.27;2.10;;;24.30;79.20;;;;;;5051566;28;20882;-48
2023/08/27 10:29:04;;;;;;;9.10;2.60;;;24.40;79.00;;;;;;5051595;28;20437;-48
2023/08/27 10:31:30;;;;;;;31.23;5.00;;;24.50;79.10;;;;;;5051913;28;20437;-48
2023/08/27 10:33:57;;;;;;;4.87;2.50;;;24.60;78.80;;;;;;5051820;28;20970;-49
2023/08/27 10:36:29;;;;;;;5.07;2.40;;;24.70;78.80;;;;;;5051909;28;20474;-49
2023/08/27 10:38:56;;;;;;;3.53;2.63;;;24.70;78.80;;;;;;5051747;28;20679;-49
2023/08/27 10:41:25;;;;;;;4.20;2.20;;;24.70;78.70;;;;;;5051696;28;20442;-48
2023/08/27 10:43:52;;;;;;;3.70;2.33;;;24.70;78.30;;;;;;5051191;28;20844;-49
2023/08/27 10:46:23;;;;;;;3.37;2.60;;;24.70;78.30;;;;;;5051865;28;20430;-49
2023/08/27 10:48:51;;;;;;;5.17;2.43;;;24.70;78.20;;;;;;5051158;28;20438;-49
2023/08/27 10:51:18;;;;;;;3.17;2.43;;;24.70;78.30;;;;;;5051117;28;20517;-48
2023/08/27 10:53:59;;;;;;;3.40;2.30;;;24.60;78.00;;;;;;5051235;28;20458;-48
2023/08/27 10:56:36;;;;;;;6.03;3.10;;;24.70;78.20;;;;;;5050737;28;20477;-49
2023/08/27 10:59:04;;;;;;;4.13;2.30;;;24.70;78.30;;;;;;5050936;28;20433;-49
2023/08/27 11:01:37;;;;;;;4.53;2.20;;;24.70;78.10;;;;;;5050859;28;20798;-49
2023/08/27 11:04:05;;;;;;;5.10;2.80;;;24.70;78.10;;;;;;5051377;28;20512;-49
2023/08/27 11:06:44;;;;;;;6.83;2.77;;;24.70;78.10;;;;;;5042155;28;20444;-49
2023/08/27 11:09:14;;;;;;;2.53;2.00;;;24.70;78.20;;;;;;5031022;28;20459;-49
2023/08/27 11:11:41;;;;;;;4.50;2.93;;;24.70;78.10;;;;;;5031162;28;20441;-49
2023/08/27 11:14:08;;;;;;;4.57;2.33;;;24.70;78.20;;;;;;5031232;28;20451;-49
2023/08/27 11:16:45;;;;;;;3.20;2.43;;;24.70;78.10;;;;;;5030551;28;21053;-49
2023/08/27 11:19:13;;;;;;;4.90;2.40;;;24.70;78.60;;;;;;5031079;28;20856;-49
2023/08/27 11:21:45;;;;;;;3.90;2.77;;;24.60;78.80;;;;;;5029473;28;20466;-49
2023/08/27 11:24:17;;;;;;;3.70;2.50;;;24.50;79.30;;;;;;5029442;28;21153;-50
2023/08/27 11:26:46;;;;;;;4.80;2.80;;;24.50;79.60;;;;;;5030275;28;20440;-48
2023/08/27 11:29:13;;;;;;;4.67;3.03;;;24.50;79.80;;;;;;5031047;28;20516;-49
2023/08/27 11:31:40;;;;;;;4.87;2.70;;;24.40;79.80;;;;;;5030988;28;20435;-49
2023/08/27 11:34:12;;;;;;;5.47;3.00;;;24.50;80.30;;;;;;5031106;28;20886;-49
2023/08/27 11:36:39;;;;;;;4.20;2.73;;;24.50;80.30;;;;;;5035207;28;20473;-49
2023/08/27 11:39:07;;;;;;;3.53;2.60;;;24.50;80.10;;;;;;5034981;28;20835;-51
2023/08/27 11:41:36;;;;;;;4.80;2.80;;;24.50;80.00;;;;;;5034936;28;20494;-50
2023/08/27 11:44:02;;;;;;;4.93;2.40;;;24.40;79.60;;;;;;5035887;28;20463;-49
2023/08/27 11:46:29;;;;;;;2.97;2.47;;;24.50;79.60;;;;;;5035030;28;20431;-49
2023/08/27 11:48:56;;;;;;;4.20;2.43;;;24.50;79.50;;;;;;5034862;28;20432;-48
2023/08/27 11:51:24;;;;;;;6.03;2.93;;;24.50;79.30;;;;;;5035193;28;20439;-49
2023/08/27 11:53:51;;;;;;;5.47;2.33;;;24.50;79.20;;;;;;5035053;28;20994;-50
2023/08/27 11:56:19;;;;;;;15.10;11.23;;;24.50;78.70;;;;;;5034495;28;20844;-49
2023/08/27 11:58:49;;;;;;;3.30;2.30;;;24.40;78.20;;;;;;5034981;28;20435;-49
2023/08/27 12:01:16;;;;;;;2.70;2.13;;;24.40;78.50;;;;;;5034801;28;20455;-49
2023/08/27 12:03:44;;;;;;;3.30;2.40;;;24.40;79.00;;;;;;5034995;28;20451;-49
2023/08/27 12:06:17;;;;;;;5.00;3.13;;;24.30;79.40;;;;;;5039338;28;20492;-49
2023/08/27 12:08:48;;;;;;;4.17;2.50;;;24.30;80.00;;;;;;5054027;28;20488;-50
2023/08/27 12:11:15;;;;;;;5.70;2.87;;;24.30;80.30;;;;;;5053048;28;20450;-50
2023/08/27 12:13:47;;;;;;;5.03;3.37;;;24.30;79.70;;;;;;5054685;28;20465;-50
2023/08/27 12:16:14;;;;;;;5.23;3.10;;;24.30;78.50;;;;;;5054336;28;20470;-50
2023/08/27 12:18:44;;;;;;;4.47;2.73;;;24.40;78.70;;;;;;5052526;28;20945;-49
2023/08/27 12:21:11;;;;;;;4.83;2.40;;;24.50;78.50;;;;;;5054441;28;20802;-50
2023/08/27 12:23:38;;;;;;;3.90;2.60;;;24.50;78.20;;;;;;5054250;28;20450;-50
2023/08/27 12:26:06;;;;;;;2.63;2.27;;;24.70;78.30;;;;;;5052861;28;20943;-50
2023/08/27 12:28:33;;;;;;;3.50;2.03;;;24.70;77.40;;;;;;5053677;28;20477;-50
2023/08/27 12:31:00;;;;;;;3.07;2.03;;;24.80;76.80;;;;;;5054576;28;20842;-50
2023/08/27 12:33:37;;;;;;;2.67;1.90;;;24.70;75.70;;;;;;5054516;28;20541;-49
2023/08/27 12:36:07;;;;;;;2.63;2.23;;;24.80;76.70;;;;;;5054452;28;20509;-49
2023/08/27 12:38:34;;;;;;;6.00;2.63;;;24.60;76.40;;;;;;5054219;28;20462;-49
2023/08/27 12:41:01;;;;;;;4.00;2.40;;;24.50;76.90;;;;;;5054489;28;20484;-49
2023/08/27 12:43:29;;;;;;;4.43;3.00;;;24.40;76.60;;;;;;5053050;28;20536;-49
2023/08/27 12:45:56;;;;;;;5.90;2.67;;;24.40;77.50;;;;;;5053837;28;20442;-49
2023/08/27 12:48:23;;;;;;;2.57;2.10;;;24.40;77.10;;;;;;5053882;28;20427;-49